Terminal Aerodrome Forecast
Issued by NWS

Home | Current Version | Previous Version | Text Only | Print | Product List | Glossary On
Versions: 1 2 3 4 5 6 7 8 9 10 11 12 13 14 15 16 17 18 19 20 21 22 23 24 25 26 27 28 29 30 31 32
000
FTAK31 PANC 190535
TAFACD
TAF
PACD 190535Z 1906/2006 15025G35KT P6SM BKN070
     FM191000 15015G25KT P6SM SCT035 BKN050
     FM191800 19020G28KT 5SM -SN BKN015
     FM200000 24020G28KT P6SM -SHSN SCT030 BKN050=

USA.gov is the U.S. government's official web portal to all federal, state and local government web resources and services.